createdAt,value
2017-05-29T00:00:39.147Z,23.88
2017-05-29T00:01:19.623Z,23.85
2017-05-29T00:02:00.107Z,23.83
2017-05-29T00:02:40.625Z,23.79
2017-05-29T00:03:21.126Z,23.83
2017-05-29T00:04:01.629Z,23.83
2017-05-29T00:04:42.117Z,23.58
2017-05-29T00:06:39.750Z,23.54
2017-05-29T00:07:20.261Z,23.42
2017-05-29T00:08:00.755Z,23.35
2017-05-29T00:08:41.251Z,23.32
2017-05-29T00:09:21.747Z,23.19
2017-05-29T00:10:02.237Z,23.17
2017-05-29T00:10:42.723Z,23.36
2017-05-29T00:11:23.216Z,23.22
2017-05-29T00:12:03.711Z,23.36
2017-05-29T00:12:44.210Z,23.33
2017-05-29T00:13:24.703Z,23.22
2017-05-29T00:14:05.200Z,23.01
2017-05-29T00:14:45.699Z,23
2017-05-29T00:15:26.189Z,23.12
2017-05-29T00:16:06.693Z,22.98
2017-05-29T00:16:47.189Z,22.95
2017-05-29T00:17:27.679Z,22.92
2017-05-29T00:18:08.178Z,22.79
2017-05-29T00:18:48.659Z,22.85
2017-05-29T00:19:29.199Z,22.91
2017-05-29T00:20:09.703Z,22.85
2017-05-29T00:20:50.185Z,22.67
2017-05-29T00:21:30.723Z,22.67
2017-05-29T00:22:11.200Z,22.86
2017-05-29T00:24:03.749Z,22.65
2017-05-29T00:24:44.232Z,22.65
2017-05-29T00:25:24.720Z,22.57
2017-05-29T00:26:05.209Z,22.54
2017-05-29T00:26:46.435Z,22.36
2017-05-29T00:27:27.014Z,22.46
2017-05-29T00:28:08.044Z,22.35
2017-05-29T00:28:48.555Z,22.33
2017-05-29T00:29:29.039Z,22.36
2017-05-29T00:30:09.520Z,22.28
2017-05-29T00:30:50.015Z,22.39
2017-05-29T00:31:30.513Z,22.36
2017-05-29T00:32:10.998Z,22.37
2017-05-29T00:32:51.501Z,22.4
2017-05-29T00:33:31.988Z,22.43
2017-05-29T00:34:12.481Z,22.54
2017-05-29T00:34:52.980Z,22.62
2017-05-29T00:35:33.483Z,22.68
2017-05-29T00:36:13.977Z,22.76
2017-05-29T00:36:54.500Z,22.79
2017-05-29T00:37:35.634Z,22.73
2017-05-29T00:38:16.121Z,22.72
2017-05-29T00:38:57.144Z,22.83
2017-05-29T00:39:37.604Z,22.85
2017-05-29T00:40:18.070Z,22.9
2017-05-29T00:40:58.529Z,22.88
2017-05-29T00:42:46.014Z,22.67
2017-05-29T00:43:26.506Z,22.65
2017-05-29T00:44:07.003Z,22.52
2017-05-29T00:44:47.478Z,22.49
2017-05-29T00:45:27.980Z,22.54
2017-05-29T00:46:09.893Z,22.4
2017-05-29T00:46:50.389Z,22.51
2017-05-29T00:47:30.888Z,22.65
2017-05-29T00:48:11.382Z,22.57
2017-05-29T00:48:51.860Z,22.68
2017-05-29T00:49:32.361Z,22.52
2017-05-29T00:50:12.860Z,22.39
2017-05-29T00:50:53.340Z,22.46
2017-05-29T00:52:30.736Z,22.35
2017-05-29T00:53:11.167Z,22.45
2017-05-29T00:53:51.645Z,22.54
2017-05-29T00:54:32.022Z,22.57
2017-05-29T00:55:12.540Z,22.4
2017-05-29T00:55:53.017Z,22.37
2017-05-29T00:56:33.494Z,22.31
2017-05-29T00:57:13.989Z,22.37
2017-05-29T00:57:54.442Z,22.37
2017-05-29T00:58:34.952Z,22.45
2017-05-29T00:59:15.422Z,22.45
2017-05-29T00:59:55.879Z,22.45
2017-05-29T01:00:36.328Z,22.46
2017-05-29T01:01:17.395Z,22.61
2017-05-29T01:01:57.861Z,22.57
2017-05-29T01:03:55.559Z,22.61
2017-05-29T01:04:36.825Z,22.61
2017-05-29T01:05:17.319Z,22.54
2017-05-29T01:05:57.806Z,22.46
2017-05-29T01:06:38.821Z,22.47
2017-05-29T01:07:19.309Z,22.54
2017-05-29T01:07:59.809Z,22.55
2017-05-29T01:08:40.309Z,22.55
2017-05-29T01:09:21.323Z,22.57
2017-05-29T01:10:01.822Z,22.52
2017-05-29T01:10:42.305Z,22.55
2017-05-29T01:11:22.803Z,22.6
2017-05-29T01:12:04.221Z,22.43
2017-05-29T01:12:44.708Z,22.36
2017-05-29T01:13:25.204Z,22.27
2017-05-29T01:14:05.695Z,22.18
2017-05-29T01:14:46.187Z,22.12
2017-05-29T01:15:26.681Z,22.06
2017-05-29T01:16:07.173Z,21.96
2017-05-29T01:16:47.670Z,21.98
2017-05-29T01:17:28.164Z,21.99
2017-05-29T01:18:08.657Z,22.03
2017-05-29T01:18:49.220Z,22.02
2017-05-29T01:19:29.704Z,22.03
2017-05-29T01:20:10.195Z,22.02
2017-05-29T01:20:50.693Z,21.94
2017-05-29T01:21:31.187Z,21.83
2017-05-29T01:22:12.595Z,21.79
2017-05-29T01:22:53.084Z,21.84
2017-05-29T01:23:33.584Z,21.82
2017-05-29T01:25:26.144Z,21.99
2017-05-29T01:26:06.640Z,22
2017-05-29T01:26:47.166Z,21.88
2017-05-29T01:28:34.707Z,21.8
2017-05-29T01:29:15.157Z,21.82
2017-05-29T01:29:55.675Z,21.86
2017-05-29T01:30:36.168Z,21.84
2017-05-29T01:31:16.671Z,21.82
2017-05-29T01:31:57.869Z,21.75
2017-05-29T01:32:38.378Z,21.77
2017-05-29T01:33:18.870Z,21.74
2017-05-29T01:33:59.385Z,21.74
2017-05-29T01:34:39.858Z,21.59
2017-05-29T01:35:20.351Z,21.5
2017-05-29T01:36:00.862Z,21.52
2017-05-29T01:36:42.241Z,21.54
2017-05-29T01:37:23.469Z,21.49
2017-05-29T01:38:03.972Z,21.61
2017-05-29T01:38:44.458Z,21.71
2017-05-29T01:39:25.000Z,21.61
2017-05-29T01:41:17.547Z,21.46
2017-05-29T01:41:58.029Z,21.49
2017-05-29T01:42:38.530Z,21.49
2017-05-29T01:43:19.033Z,21.5
2017-05-29T01:45:16.641Z,21.24
2017-05-29T01:45:57.137Z,21.16
2017-05-29T01:46:37.627Z,21.13
2017-05-29T01:47:18.117Z,21.09
2017-05-29T01:47:59.341Z,21.1
2017-05-29T01:48:39.852Z,20.99
2017-05-29T01:49:20.367Z,20.94
2017-05-29T01:50:00.811Z,20.95
2017-05-29T01:50:41.307Z,20.94
2017-05-29T01:51:21.789Z,20.94
2017-05-29T01:52:02.257Z,20.94
2017-05-29T01:52:42.748Z,20.91
2017-05-29T01:53:23.239Z,20.94
2017-05-29T01:54:03.709Z,20.95
2017-05-29T01:54:44.211Z,21.03
2017-05-29T01:55:24.701Z,20.92
2017-05-29T01:56:05.194Z,20.94
2017-05-29T01:56:45.675Z,20.98
2017-05-29T01:57:26.176Z,20.94
2017-05-29T01:58:06.674Z,20.97
2017-05-29T01:58:47.190Z,20.91
2017-05-29T01:59:27.744Z,20.94
2017-05-29T02:00:08.180Z,20.8
2017-05-29T02:00:48.685Z,20.89
2017-05-29T02:01:29.161Z,20.66
2017-05-29T02:02:09.659Z,20.62
2017-05-29T02:02:50.152Z,20.59
2017-05-29T02:03:30.631Z,20.58
2017-05-29T02:05:08.013Z,20.55
2017-05-29T02:05:48.673Z,20.72
2017-05-29T02:06:28.918Z,20.69
2017-05-29T02:07:09.371Z,20.64
2017-05-29T02:07:49.826Z,20.72
2017-05-29T02:08:30.254Z,20.59
2017-05-29T02:09:10.714Z,20.57
2017-05-29T02:09:51.207Z,20.47
2017-05-29T02:10:31.671Z,20.58
2017-05-29T02:11:12.124Z,20.64
2017-05-29T02:11:52.595Z,20.69
2017-05-29T02:12:33.064Z,20.7
2017-05-29T02:13:13.533Z,20.79
2017-05-29T02:13:54.024Z,20.69
2017-05-29T02:14:34.444Z,20.67
2017-05-29T02:15:14.964Z,20.69
2017-05-29T02:15:55.448Z,20.8
2017-05-29T02:16:36.028Z,20.79
2017-05-29T02:17:17.142Z,20.69
2017-05-29T02:17:57.609Z,20.67
2017-05-29T02:18:38.045Z,20.76
2017-05-29T02:19:18.528Z,20.67
2017-05-29T02:19:59.013Z,20.7
2017-05-29T02:20:39.515Z,20.76
2017-05-29T02:21:19.993Z,20.66
2017-05-29T02:22:00.441Z,20.64
2017-05-29T02:22:40.901Z,20.7
2017-05-29T02:23:21.397Z,20.7
2017-05-29T02:24:01.789Z,20.7
2017-05-29T02:24:43.025Z,20.67
2017-05-29T02:25:23.485Z,20.79
2017-05-29T02:26:03.959Z,20.88
2017-05-29T02:26:44.438Z,20.98
2017-05-29T02:27:24.932Z,21.03
2017-05-29T02:28:05.432Z,21.07
2017-05-29T02:28:45.849Z,21.09
2017-05-29T02:29:27.271Z,21.17
2017-05-29T02:30:07.725Z,21.22
2017-05-29T02:30:48.784Z,21.34
2017-05-29T02:31:29.237Z,21.17
2017-05-29T02:32:09.667Z,21.13
2017-05-29T02:32:50.119Z,20.95
2017-05-29T02:33:30.576Z,21.1
2017-05-29T02:34:11.073Z,20.99
2017-05-29T02:34:51.447Z,21.07
2017-05-29T02:35:31.901Z,21.17
2017-05-29T02:36:12.360Z,21.22
2017-05-29T02:36:52.814Z,21.28
2017-05-29T02:37:33.272Z,21.31
2017-05-29T02:38:14.439Z,21.42
2017-05-29T02:38:54.931Z,21.47
2017-05-29T02:39:35.398Z,21.49
2017-05-29T02:40:15.859Z,21.42
2017-05-29T02:40:56.300Z,21.43
2017-05-29T02:41:36.744Z,21.35
2017-05-29T02:42:17.165Z,21.29
2017-05-29T02:42:57.620Z,21.29
2017-05-29T02:43:38.117Z,21.46
2017-05-29T02:44:18.602Z,21.38
2017-05-29T02:44:59.065Z,21.35
2017-05-29T02:45:39.524Z,21.46
2017-05-29T02:46:19.996Z,21.34
2017-05-29T02:47:00.440Z,21.32
2017-05-29T02:47:40.918Z,21.28
2017-05-29T02:48:21.359Z,21.37
2017-05-29T02:49:01.847Z,21.37
2017-05-29T02:49:42.269Z,21.29
2017-05-29T02:50:22.699Z,21.38
2017-05-29T02:51:03.154Z,21.49
2017-05-29T02:51:43.570Z,21.47
2017-05-29T02:52:24.170Z,21.43
2017-05-29T02:53:04.630Z,21.47
2017-05-29T02:53:45.074Z,21.5
2017-05-29T02:54:25.580Z,21.52
2017-05-29T02:55:06.008Z,21.52
2017-05-29T02:55:47.157Z,21.44
2017-05-29T02:56:27.752Z,21.44
2017-05-29T02:57:08.258Z,21.44
2017-05-29T02:57:48.681Z,21.46
2017-05-29T02:58:29.281Z,21.43
2017-05-29T02:59:10.531Z,21.44
2017-05-29T02:59:51.012Z,21.46
2017-05-29T03:00:31.461Z,21.38
2017-05-29T03:01:11.871Z,21.44
2017-05-29T03:01:53.176Z,21.4
2017-05-29T03:02:33.592Z,21.49
2017-05-29T03:03:14.044Z,21.53
2017-05-29T03:03:54.479Z,21.49
2017-05-29T03:04:34.914Z,21.56
2017-05-29T03:05:15.431Z,21.64
2017-05-29T03:05:55.863Z,21.59
2017-05-29T03:06:36.287Z,21.62
2017-05-29T03:07:16.805Z,21.65
2017-05-29T03:07:57.246Z,21.62
2017-05-29T03:08:37.694Z,21.69
2017-05-29T03:09:18.187Z,21.72
2017-05-29T03:09:58.637Z,21.77
2017-05-29T03:10:40.363Z,21.77
2017-05-29T03:11:20.847Z,21.74
2017-05-29T03:12:01.276Z,21.72
2017-05-29T03:12:41.733Z,21.72
2017-05-29T03:13:22.167Z,21.75
2017-05-29T03:14:02.589Z,21.79
2017-05-29T03:14:43.007Z,21.82
2017-05-29T03:15:23.444Z,21.69
2017-05-29T03:16:04.801Z,21.74
2017-05-29T03:16:45.301Z,21.77
2017-05-29T03:17:25.719Z,21.74
2017-05-29T03:18:06.220Z,21.69
2017-05-29T03:18:46.670Z,21.68
2017-05-29T03:19:27.175Z,21.71
2017-05-29T03:20:08.497Z,21.71
2017-05-29T03:20:48.901Z,21.64
2017-05-29T03:21:29.382Z,21.59
2017-05-29T03:22:09.852Z,21.47
2017-05-29T03:22:50.304Z,21.52
2017-05-29T03:23:30.715Z,21.52
2017-05-29T03:24:11.162Z,21.42
2017-05-29T03:24:51.640Z,21.46
2017-05-29T03:25:32.089Z,21.37
2017-05-29T03:26:12.542Z,21.32
2017-05-29T03:26:53.002Z,21.19
2017-05-29T03:27:33.484Z,21.22
2017-05-29T03:28:13.935Z,21.28
2017-05-29T03:28:54.342Z,21.35
2017-05-29T03:29:34.830Z,21.32
2017-05-29T03:30:15.261Z,21.32
2017-05-29T03:32:07.821Z,21.29
2017-05-29T03:32:48.311Z,21.13
2017-05-29T03:33:28.798Z,21.16
2017-05-29T03:34:09.292Z,21.06
2017-05-29T03:34:49.775Z,20.91
2017-05-29T03:35:30.269Z,20.79
2017-05-29T03:36:11.584Z,20.7
2017-05-29T03:36:52.058Z,20.59
2017-05-29T03:38:44.619Z,20.38
2017-05-29T03:39:25.092Z,20.33
2017-05-29T03:40:05.585Z,20.31
2017-05-29T03:40:46.057Z,20.32
2017-05-29T03:42:23.456Z,20.24
2017-05-29T03:43:03.947Z,20.28
2017-05-29T03:43:44.411Z,20.28
2017-05-29T03:44:24.835Z,20.23
2017-05-29T03:45:05.282Z,20.08
2017-05-29T03:45:45.754Z,20.13
2017-05-29T03:46:26.252Z,20.17
2017-05-29T03:47:06.689Z,20.18
2017-05-29T03:47:47.203Z,20.16
2017-05-29T03:49:24.871Z,20.08
2017-05-29T03:50:05.349Z,20.21
2017-05-29T03:50:45.851Z,20.11
2017-05-29T03:51:26.346Z,20.16
2017-05-29T03:52:06.850Z,20.18
2017-05-29T03:52:48.021Z,20.23
2017-05-29T03:53:28.514Z,20.28
2017-05-29T03:54:10.347Z,20.24
2017-05-29T03:54:50.848Z,20.24
2017-05-29T03:55:31.322Z,20.24
2017-05-29T03:56:11.813Z,20.2
2017-05-29T03:56:52.304Z,20.32
2017-05-29T03:57:33.757Z,20.32
2017-05-29T03:58:14.255Z,20.35
2017-05-29T03:58:55.563Z,20.52
2017-05-29T03:59:36.014Z,20.51
2017-05-29T04:00:16.507Z,20.43
2017-05-29T04:00:57.013Z,20.51
2017-05-29T04:01:37.493Z,20.55
2017-05-29T04:02:17.984Z,20.47
2017-05-29T04:02:58.485Z,20.55
2017-05-29T04:03:38.967Z,20.59
2017-05-29T04:04:19.474Z,20.57
2017-05-29T04:04:59.959Z,20.61
2017-05-29T04:05:40.441Z,20.67
2017-05-29T04:06:20.940Z,20.67
2017-05-29T04:07:01.433Z,20.8
2017-05-29T04:07:41.942Z,20.82
2017-05-29T04:08:23.125Z,20.77
2017-05-29T04:09:03.615Z,20.89
2017-05-29T04:09:44.109Z,20.95
2017-05-29T04:10:24.625Z,20.98
2017-05-29T04:11:05.121Z,20.91
2017-05-29T04:11:45.616Z,21.03
2017-05-29T04:12:26.769Z,20.98
2017-05-29T04:13:07.283Z,20.92
2017-05-29T04:13:47.781Z,20.87
2017-05-29T04:14:29.272Z,20.77
2017-05-29T04:15:09.764Z,20.84
2017-05-29T04:15:50.250Z,20.8
2017-05-29T04:16:30.742Z,20.67
2017-05-29T04:17:11.243Z,20.62
2017-05-29T04:17:51.735Z,20.58
2017-05-29T04:18:32.243Z,20.58
2017-05-29T04:19:12.724Z,20.47
2017-05-29T04:19:53.216Z,20.51
2017-05-29T04:20:33.719Z,20.42
2017-05-29T04:21:14.203Z,20.36
2017-05-29T04:21:54.692Z,20.35
2017-05-29T04:22:35.179Z,20.17
2017-05-29T04:23:15.666Z,20.26
2017-05-29T04:23:56.176Z,20.33
2017-05-29T04:24:36.658Z,20.17
2017-05-29T04:25:17.156Z,20.18
2017-05-29T04:25:57.644Z,20.08
2017-05-29T04:26:38.134Z,20.28
2017-05-29T04:27:18.633Z,20.31
2017-05-29T04:27:59.124Z,20.39
2017-05-29T04:28:39.610Z,20.57
2017-05-29T04:29:20.763Z,20.51
2017-05-29T04:30:01.244Z,20.62
2017-05-29T04:30:41.746Z,20.59
2017-05-29T04:31:22.230Z,20.54
2017-05-29T04:32:02.726Z,20.58
2017-05-29T04:32:43.209Z,20.61
2017-05-29T04:33:23.715Z,20.64
2017-05-29T04:34:04.864Z,20.69
2017-05-29T04:34:45.374Z,20.69
2017-05-29T04:35:26.445Z,20.69
2017-05-29T04:36:06.889Z,20.77
2017-05-29T04:36:47.413Z,20.8
2017-05-29T04:39:00.121Z,20.77
2017-05-29T04:39:40.602Z,20.67
2017-05-29T04:40:21.099Z,20.7
2017-05-29T04:41:01.589Z,20.62
2017-05-29T04:41:42.082Z,20.7
2017-05-29T04:42:22.543Z,20.76
2017-05-29T04:43:03.615Z,20.79
2017-05-29T04:43:44.103Z,20.79
2017-05-29T04:44:24.603Z,20.84
2017-05-29T04:45:05.091Z,20.82
2017-05-29T04:45:46.533Z,20.88
2017-05-29T04:46:27.003Z,20.94
2017-05-29T04:47:07.494Z,20.98
2017-05-29T04:47:47.965Z,20.97
2017-05-29T04:48:28.457Z,20.98
2017-05-29T04:49:08.962Z,21.01
2017-05-29T04:49:49.436Z,21.1
2017-05-29T04:50:29.941Z,21.17
2017-05-29T04:51:10.432Z,21.29
2017-05-29T04:51:50.929Z,21.35
2017-05-29T04:52:31.415Z,21.32
2017-05-29T04:53:11.910Z,21.32
2017-05-29T04:53:52.406Z,21.4
2017-05-29T04:54:32.897Z,21.43
2017-05-29T04:55:13.931Z,21.46
2017-05-29T04:55:54.434Z,21.62
2017-05-29T04:56:35.614Z,21.65
2017-05-29T04:57:16.102Z,21.75
2017-05-29T04:57:56.600Z,21.8
2017-05-29T04:58:37.082Z,21.86
2017-05-29T04:59:17.580Z,22
2017-05-29T04:59:58.066Z,22.1
2017-05-29T05:00:38.571Z,22.15
2017-05-29T05:01:19.055Z,22.31
2017-05-29T05:01:59.545Z,22.49
2017-05-29T05:02:40.038Z,22.67
2017-05-29T05:03:21.125Z,22.64
2017-05-29T05:04:01.612Z,22.82
2017-05-29T05:04:42.110Z,22.91
2017-05-29T05:05:23.113Z,22.94
2017-05-29T05:06:03.588Z,23.16
2017-05-29T05:06:44.085Z,23.2
2017-05-29T05:07:24.567Z,23.09
2017-05-29T05:08:05.042Z,23.15
2017-05-29T05:08:45.522Z,23.23
2017-05-29T05:09:26.021Z,23.36
2017-05-29T05:10:06.498Z,23.4
2017-05-29T05:10:47.008Z,23.5
2017-05-29T05:11:27.502Z,23.48
2017-05-29T05:12:07.984Z,23.73
2017-05-29T05:12:48.454Z,23.8
2017-05-29T05:13:28.949Z,23.93
2017-05-29T05:14:09.435Z,24.1
2017-05-29T05:14:49.912Z,24.39
2017-05-29T05:15:31.339Z,24.31
2017-05-29T05:16:11.822Z,24.62
2017-05-29T05:16:52.313Z,24.83
2017-05-29T05:17:32.816Z,24.8
2017-05-29T05:18:13.314Z,24.81
2017-05-29T05:18:53.809Z,24.78
2017-05-29T05:19:34.286Z,24.84
2017-05-29T05:20:14.774Z,24.88
2017-05-29T05:20:55.261Z,24.98
2017-05-29T05:22:42.723Z,25.3
2017-05-29T05:23:23.192Z,25.47
2017-05-29T05:24:03.674Z,25.52
2017-05-29T05:24:44.179Z,25.64
2017-05-29T05:25:24.655Z,25.67
2017-05-29T05:26:05.125Z,25.65
2017-05-29T05:26:45.607Z,25.75
2017-05-29T05:27:26.112Z,25.69
2017-05-29T05:28:06.596Z,25.82
2017-05-29T05:28:47.094Z,25.87
2017-05-29T05:29:27.577Z,25.91
2017-05-29T05:30:08.164Z,25.91
2017-05-29T05:30:48.717Z,25.94
2017-05-29T05:31:29.382Z,25.88
2017-05-29T05:32:09.879Z,26.05
2017-05-29T05:32:50.415Z,25.9
2017-05-29T05:33:30.917Z,25.87
2017-05-29T05:34:11.419Z,25.45
2017-05-29T05:34:51.902Z,25.67
2017-05-29T05:35:32.392Z,25.13
2017-05-29T05:36:12.950Z,25.18
2017-05-29T05:36:54.017Z,25.33
2017-05-29T05:37:34.526Z,25.43
2017-05-29T05:38:15.010Z,25.58
2017-05-29T05:38:55.493Z,25.7
2017-05-29T05:39:36.001Z,25.91
2017-05-29T05:40:16.480Z,26.05
2017-05-29T05:40:57.035Z,26.3
2017-05-29T05:41:37.448Z,26.4
2017-05-29T05:42:17.958Z,26.4
2017-05-29T05:42:58.492Z,26.35
2017-05-29T05:43:38.982Z,26.44
2017-05-29T05:44:19.484Z,26.62
2017-05-29T05:44:59.978Z,26.67
2017-05-29T05:45:40.468Z,26.89
2017-05-29T05:46:20.962Z,27
2017-05-29T05:47:01.491Z,26.7
2017-05-29T05:47:41.961Z,26.91
2017-05-29T05:48:23.293Z,27.12
2017-05-29T05:49:03.767Z,27.29
2017-05-29T05:49:44.930Z,27.07
2017-05-29T05:50:25.414Z,27.09
2017-05-29T05:51:05.876Z,27.04
2017-05-29T05:51:47.021Z,26.95
2017-05-29T05:52:27.506Z,27.22
2017-05-29T05:53:07.997Z,27.34
2017-05-29T05:53:48.487Z,27.47
2017-05-29T05:54:28.985Z,27.63
2017-05-29T05:55:09.485Z,28.04
2017-05-29T05:55:49.979Z,28.21
2017-05-29T05:56:30.483Z,28.46
2017-05-29T05:57:10.975Z,28.73
2017-05-29T05:57:51.443Z,28.96
2017-05-29T05:58:31.958Z,29.05
2017-05-29T05:59:12.458Z,29.21
2017-05-29T05:59:52.943Z,29.27
2017-05-29T06:00:33.446Z,29.26
2017-05-29T06:01:13.957Z,29.12
2017-05-29T06:01:55.134Z,29.09
2017-05-29T06:02:35.629Z,29.21
2017-05-29T06:03:16.117Z,29.12
2017-05-29T06:03:56.583Z,29.19
2017-05-29T06:04:37.629Z,29.53
2017-05-29T06:05:18.120Z,29.61
2017-05-29T06:07:16.590Z,29.26
2017-05-29T06:07:57.173Z,29.37
2017-05-29T06:08:37.679Z,29.65
2017-05-29T06:09:18.236Z,29.64
2017-05-29T06:09:58.710Z,29.61
2017-05-29T06:10:39.865Z,29.24
2017-05-29T06:11:20.380Z,29.37
2017-05-29T06:12:00.881Z,29.51
2017-05-29T06:14:13.808Z,29.53
2017-05-29T06:14:54.292Z,29.28
2017-05-29T06:15:34.797Z,29.08
2017-05-29T06:16:15.246Z,29.23
2017-05-29T06:16:55.679Z,29
2017-05-29T06:17:36.142Z,28.98
2017-05-29T06:18:16.622Z,29.23
2017-05-29T06:18:57.148Z,29.37
2017-05-29T06:21:10.041Z,29.68
2017-05-29T06:21:50.389Z,29.53
2017-05-29T06:22:30.992Z,29.46
2017-05-29T06:23:11.417Z,28.89
2017-05-29T06:23:51.953Z,28.77
2017-05-29T06:25:44.493Z,28.7
2017-05-29T06:26:24.981Z,28.48
2017-05-29T06:27:05.478Z,28.61
2017-05-29T06:27:45.960Z,28.48
2017-05-29T06:28:26.452Z,28.46
2017-05-29T06:29:07.694Z,28.66
2017-05-29T06:29:48.196Z,28.62
2017-05-29T06:30:28.698Z,28.4
2017-05-29T06:31:09.175Z,28.33
2017-05-29T06:31:49.658Z,28.48
2017-05-29T06:32:30.178Z,28.36
2017-05-29T06:33:10.693Z,28.12
2017-05-29T06:33:51.169Z,27.93
2017-05-29T06:34:31.675Z,28.03
2017-05-29T06:35:12.225Z,28.25
2017-05-29T06:35:52.724Z,28.29
2017-05-29T06:36:33.206Z,28.73
2017-05-29T06:37:13.714Z,28.89
2017-05-29T06:37:55.789Z,29.23
2017-05-29T06:38:36.294Z,29.42
2017-05-29T06:39:16.799Z,29.46
2017-05-29T06:39:57.290Z,29.68
2017-05-29T06:40:38.686Z,30
2017-05-29T06:41:19.197Z,30.35
2017-05-29T06:41:59.685Z,30.67
2017-05-29T06:42:40.217Z,30.92
2017-05-29T06:43:20.719Z,30.98
2017-05-29T06:44:01.222Z,31.21
2017-05-29T06:44:41.728Z,31.63
2017-05-29T06:45:22.256Z,31.66
2017-05-29T06:46:02.747Z,31.91
2017-05-29T06:46:43.234Z,31.8
2017-05-29T06:47:23.754Z,31.72
2017-05-29T06:48:04.258Z,31.76
2017-05-29T06:48:44.737Z,32.08
2017-05-29T06:49:25.290Z,32.11
2017-05-29T06:50:05.792Z,32.33
2017-05-29T06:50:46.274Z,32.11
2017-05-29T06:51:26.775Z,32.3
2017-05-29T06:52:07.348Z,32.26
2017-05-29T06:52:49.306Z,32.25
2017-05-29T06:53:29.980Z,31.84
2017-05-29T06:54:10.530Z,32.25
2017-05-29T06:54:51.122Z,31.99
2017-05-29T06:55:31.718Z,31.43
2017-05-29T06:56:12.279Z,31.2
2017-05-29T06:56:52.831Z,31.48
2017-05-29T06:57:33.988Z,31.44
2017-05-29T06:58:14.476Z,31.2
2017-05-29T06:58:55.012Z,30.98
2017-05-29T06:59:35.533Z,30.88
2017-05-29T07:00:16.045Z,30.88
2017-05-29T07:00:56.548Z,30.89
2017-05-29T07:01:37.061Z,30.89
2017-05-29T07:02:17.574Z,30.72
2017-05-29T07:02:58.077Z,30.73
2017-05-29T07:03:38.562Z,30.76
2017-05-29T07:04:19.114Z,30.94
2017-05-29T07:04:59.608Z,31.31
2017-05-29T07:05:40.155Z,31.7
2017-05-29T07:06:20.638Z,31.72
2017-05-29T07:07:01.244Z,31.69
2017-05-29T07:07:41.640Z,31.51
2017-05-29T07:08:22.137Z,31.23
2017-05-29T07:09:03.316Z,31.41
2017-05-29T07:09:43.890Z,31.69
2017-05-29T07:10:24.352Z,31.47
2017-05-29T07:11:04.862Z,31.68
2017-05-29T07:11:46.308Z,31.91
2017-05-29T07:12:26.854Z,31.89
2017-05-29T07:13:07.389Z,32.04
2017-05-29T07:13:47.882Z,32.21
2017-05-29T07:14:28.382Z,31.99
2017-05-29T07:15:08.899Z,32.29
2017-05-29T07:15:49.402Z,32.41
2017-05-29T07:16:29.920Z,32.43
2017-05-29T07:18:17.394Z,33.47
2017-05-29T07:18:57.876Z,34
2017-05-29T07:19:38.384Z,34.43
2017-05-29T07:20:18.894Z,34.73
2017-05-29T07:20:59.402Z,34.49
2017-05-29T07:21:39.885Z,34.56
2017-05-29T07:22:20.360Z,34.77
2017-05-29T07:23:00.851Z,34.7
2017-05-29T07:23:41.344Z,35.07
2017-05-29T07:24:21.832Z,35.14
2017-05-29T07:25:02.327Z,35.65
2017-05-29T07:25:42.819Z,35.68
2017-05-29T07:27:55.663Z,35.25
2017-05-29T07:28:36.156Z,35.65
2017-05-29T07:29:16.706Z,35.59
2017-05-29T07:29:57.218Z,35.28
2017-05-29T07:30:37.741Z,35.56
2017-05-29T07:31:18.242Z,35.15
2017-05-29T07:31:58.707Z,35.63
2017-05-29T07:32:39.205Z,35.82
2017-05-29T07:33:19.657Z,36.19
2017-05-29T07:34:00.169Z,36.34
2017-05-29T07:34:40.631Z,36.6
2017-05-29T07:35:21.107Z,36.43
2017-05-29T07:36:01.706Z,36.38
2017-05-29T07:36:42.850Z,36.73
2017-05-29T07:37:23.329Z,36.91
2017-05-29T07:38:03.871Z,36.93
2017-05-29T07:38:44.355Z,36.94
2017-05-29T07:40:42.145Z,36.83
2017-05-29T07:41:23.334Z,35.77
2017-05-29T07:42:03.846Z,36.28
2017-05-29T07:42:44.377Z,36.27
2017-05-29T07:43:24.857Z,35.78
2017-05-29T07:44:05.357Z,36.07
2017-05-29T07:44:45.866Z,36.34
2017-05-29T07:45:26.369Z,35.6
2017-05-29T07:46:06.928Z,35.75
2017-05-29T07:47:59.521Z,36.47
2017-05-29T07:48:40.005Z,36.69
2017-05-29T07:49:20.471Z,36.46
2017-05-29T07:50:00.960Z,36.49
2017-05-29T07:50:41.494Z,36.27
2017-05-29T07:51:22.002Z,36.69
2017-05-29T07:52:02.553Z,37.31
2017-05-29T07:52:43.060Z,37.02
2017-05-29T07:53:23.587Z,36.88
2017-05-29T07:54:04.148Z,36.71
2017-05-29T07:54:44.654Z,37.09
2017-05-29T07:55:25.802Z,37.31
2017-05-29T07:56:05.798Z,37.37
2017-05-29T07:56:46.266Z,37.46
2017-05-29T07:57:26.734Z,37.56
2017-05-29T07:59:19.310Z,36.91
2017-05-29T07:59:59.793Z,37.07
2017-05-29T08:00:40.315Z,37.17
2017-05-29T08:01:20.793Z,37.41
2017-05-29T08:02:01.301Z,37
2017-05-29T08:02:41.803Z,37.05
2017-05-29T08:03:22.319Z,37.07
2017-05-29T08:04:02.807Z,37.21
2017-05-29T08:04:43.350Z,37.6
2017-05-29T08:05:23.844Z,37.28
2017-05-29T08:06:04.347Z,37.62
2017-05-29T08:06:44.863Z,37.84
2017-05-29T08:07:25.379Z,38.03
2017-05-29T08:08:05.883Z,38.54
2017-05-29T08:08:46.398Z,38.63
2017-05-29T08:09:26.875Z,38
2017-05-29T08:10:07.371Z,38.19
2017-05-29T08:10:48.485Z,38.57
2017-05-29T08:11:28.957Z,38.46
2017-05-29T08:12:09.433Z,38.6
2017-05-29T08:12:49.941Z,38.69
2017-05-29T08:13:30.421Z,38.9
2017-05-29T08:14:10.910Z,38.96
2017-05-29T08:14:51.535Z,38.91
2017-05-29T08:15:32.003Z,38.6
2017-05-29T08:16:12.523Z,38.74
2017-05-29T08:16:53.032Z,38.63
2017-05-29T08:17:34.269Z,38.18
2017-05-29T08:19:26.819Z,38.28
2017-05-29T08:20:07.385Z,38.12
2017-05-29T08:20:47.859Z,38.63
2017-05-29T08:21:28.327Z,38.84
2017-05-29T08:23:41.106Z,38.74
2017-05-29T08:24:21.671Z,38.37
2017-05-29T08:25:02.138Z,38.28
2017-05-29T08:25:42.636Z,38.46
2017-05-29T08:26:23.133Z,38.53
2017-05-29T08:27:03.681Z,38.66
2017-05-29T08:27:44.658Z,39.14
2017-05-29T08:28:25.221Z,38.96
2017-05-29T08:29:05.871Z,39.6
2017-05-29T08:29:46.627Z,39.6
2017-05-29T08:30:27.198Z,38.22
2017-05-29T08:31:07.671Z,37.31
2017-05-29T08:31:48.166Z,37.56
2017-05-29T08:33:40.739Z,38.31
2017-05-29T08:34:21.218Z,38.54
2017-05-29T08:35:01.796Z,39.03
2017-05-29T08:35:42.282Z,39.32
2017-05-29T08:36:22.768Z,39.23
2017-05-29T08:37:03.322Z,39.86
2017-05-29T08:37:43.830Z,40.51
2017-05-29T08:38:24.325Z,39.57
2017-05-29T08:39:04.799Z,39.82
2017-05-29T08:39:45.319Z,40.31
2017-05-29T08:40:25.831Z,41.02
2017-05-29T08:41:06.332Z,40.22
2017-05-29T08:41:46.797Z,39.25
2017-05-29T08:42:27.343Z,38
2017-05-29T08:43:07.871Z,36.53
2017-05-29T08:43:48.437Z,36.78
2017-05-29T08:44:28.954Z,36.2
2017-05-29T08:45:09.477Z,35.75
2017-05-29T08:45:49.978Z,36.37
2017-05-29T08:46:30.488Z,36.43
2017-05-29T08:47:10.974Z,36.93
2017-05-29T08:47:51.579Z,37.69
2017-05-29T08:48:32.029Z,38.3
2017-05-29T08:49:12.579Z,38.57
2017-05-29T08:49:53.956Z,39.06
2017-05-29T08:50:34.435Z,38.42
2017-05-29T08:51:14.987Z,38.56
2017-05-29T08:51:55.522Z,38.91
2017-05-29T08:52:36.030Z,39.84
2017-05-29T08:53:16.541Z,40.16
2017-05-29T08:53:57.083Z,40.54
2017-05-29T08:54:37.571Z,41.02
2017-05-29T08:55:18.116Z,41.62
2017-05-29T08:55:58.650Z,42.01
2017-05-29T08:56:39.158Z,41.82
2017-05-29T08:57:19.752Z,42.78
2017-05-29T08:58:00.196Z,43.05
2017-05-29T08:58:40.698Z,42.3
2017-05-29T08:59:21.271Z,41.91
2017-05-29T09:00:02.336Z,41.82
2017-05-29T09:00:42.863Z,40.6
2017-05-29T09:01:23.344Z,39.43
2017-05-29T09:02:03.880Z,38.86
2017-05-29T09:02:44.387Z,39.52
2017-05-29T09:04:31.921Z,40.94
2017-05-29T09:05:12.447Z,41.7
2017-05-29T09:05:52.899Z,40.76
2017-05-29T09:06:33.437Z,40.18
2017-05-29T09:07:13.966Z,40.51
2017-05-29T09:07:54.665Z,40.34
2017-05-29T09:08:35.123Z,41.14
2017-05-29T09:09:16.333Z,42.05
2017-05-29T09:09:56.963Z,43.02
2017-05-29T09:10:37.578Z,42.36
2017-05-29T09:11:18.208Z,42.98
2017-05-29T09:11:58.665Z,43.38
2017-05-29T09:12:39.200Z,42.92
2017-05-29T09:13:20.708Z,43.78
2017-05-29T09:14:01.255Z,44.24
2017-05-29T09:14:41.817Z,44.66
2017-05-29T09:15:22.417Z,45.02
2017-05-29T09:16:02.936Z,45.29
2017-05-29T09:16:43.437Z,43.6
2017-05-29T09:17:23.976Z,42.96
2017-05-29T09:18:04.507Z,41.37
2017-05-29T09:18:45.022Z,41.39
2017-05-29T09:20:42.685Z,42.59
2017-05-29T09:21:23.217Z,43.23